ANZ332 NZCH-NZWN
Flight info
| Callsign | ANZ332 |
|---|---|
| Flight time | 0h 33m |
| Altitude | 23000 |
| Route | GRETA Y393 WARDS |
| Aircraft | A320/M-SDE3FGHIRWY/LB1 |
Departure
| Time | 2026-05-04 09:26 |
|---|---|
| Airport | Christchurch International Airport (NZCH) |
Arrival
| Time | 2026-05-04 10:00 |
|---|---|
| Airport | Wellington International Airport (NZWN) |
| Time | Latitude | Longitude | Altitude | Speed | Heading |
|---|---|---|---|---|---|
| 2026-05-04 09:08 | -43.48867 | 172.53785 | 108 ft | 0 kts | 130° |
| 2026-05-04 09:19 | -43.48862 | 172.53777 | 109 ft | 2 kts | 129° |
| 2026-05-04 09:19 | -43.48852 | 172.53759 | 107 ft | 2 kts | 130° |
| 2026-05-04 09:19 | -43.48841 | 172.53742 | 109 ft | 2 kts | 130° |
| 2026-05-04 09:19 | -43.48830 | 172.53725 | 109 ft | 2 kts | 131° |
| 2026-05-04 09:20 | -43.48819 | 172.53708 | 108 ft | 2 kts | 133° |
| 2026-05-04 09:20 | -43.48808 | 172.53692 | 108 ft | 2 kts | 137° |
| 2026-05-04 09:20 | -43.48795 | 172.53677 | 109 ft | 2 kts | 156° |
| 2026-05-04 09:20 | -43.48781 | 172.53676 | 109 ft | 1 kts | 229° |
| 2026-05-04 09:21 | -43.48778 | 172.53679 | 109 ft | 0 kts | 221° |
| 2026-05-04 09:21 | -43.48785 | 172.53671 | 108 ft | 4 kts | 221° |
| 2026-05-04 09:22 | -43.48826 | 172.53622 | 106 ft | 11 kts | 220° |
| 2026-05-04 09:22 | -43.48905 | 172.53534 | 109 ft | 18 kts | 219° |
| 2026-05-04 09:22 | -43.49013 | 172.53421 | 111 ft | 22 kts | 217° |
| 2026-05-04 09:22 | -43.49152 | 172.53267 | 115 ft | 28 kts | 220° |
| 2026-05-04 09:23 | -43.49311 | 172.53083 | 118 ft | 32 kts | 221° |
| 2026-05-04 09:23 | -43.49477 | 172.52885 | 122 ft | 23 kts | 219° |
| 2026-05-04 09:23 | -43.49511 | 172.52800 | 129 ft | 12 kts | 270° |
| 2026-05-04 09:23 | -43.49503 | 172.52677 | 126 ft | 0 kts | 275° |
| 2026-05-04 09:25 | -43.49405 | 172.52626 | 123 ft | 19 kts | 39° |
| 2026-05-04 09:25 | -43.49082 | 172.53002 | 114 ft | 99 kts | 40° |
| 2026-05-04 09:26 | -43.48412 | 172.53791 | 109 ft | 153 kts | 41° |
| 2026-05-04 09:26 | -43.47574 | 172.54782 | 705 ft | 159 kts | 40° |
| 2026-05-04 09:26 | -43.46663 | 172.55676 | 1448 ft | 161 kts | 28° |
| 2026-05-04 09:26 | -43.45635 | 172.56320 | 2152 ft | 165 kts | 21° |
| 2026-05-04 09:27 | -43.44508 | 172.56968 | 2539 ft | 187 kts | 22° |
| 2026-05-04 09:27 | -43.43217 | 172.57743 | 2807 ft | 220 kts | 23° |
| 2026-05-04 09:27 | -43.41729 | 172.58659 | 3288 ft | 247 kts | 24° |
| 2026-05-04 09:27 | -43.40129 | 172.59658 | 4064 ft | 260 kts | 24° |
| 2026-05-04 09:28 | -43.38470 | 172.60706 | 5022 ft | 266 kts | 24° |
| 2026-05-04 09:28 | -43.37340 | 172.61424 | 5675 ft | 270 kts | 24° |
| 2026-05-04 09:28 | -43.35059 | 172.62885 | 6931 ft | 278 kts | 24° |
| 2026-05-04 09:28 | -43.33870 | 172.63653 | 7528 ft | 282 kts | 25° |
| 2026-05-04 09:29 | -43.31791 | 172.65768 | 8696 ft | 290 kts | 39° |
| 2026-05-04 09:29 | -43.30755 | 172.66994 | 9312 ft | 293 kts | 39° |
| 2026-05-04 09:29 | -43.28686 | 172.69465 | 10385 ft | 306 kts | 39° |
| 2026-05-04 09:29 | -43.27011 | 172.71446 | 10718 ft | 329 kts | 39° |
| 2026-05-04 09:30 | -43.25232 | 172.73525 | 11299 ft | 340 kts | 39° |
| 2026-05-04 09:30 | -43.24015 | 172.74937 | 11814 ft | 343 kts | 39° |
| 2026-05-04 09:30 | -43.22180 | 172.77056 | 12610 ft | 347 kts | 39° |
| 2026-05-04 09:30 | -43.20325 | 172.79188 | 13410 ft | 351 kts | 38° |
| 2026-05-04 09:31 | -43.18464 | 172.81319 | 14210 ft | 354 kts | 39° |
| 2026-05-04 09:31 | -43.16540 | 172.83518 | 14929 ft | 357 kts | 38° |
| 2026-05-04 09:31 | -43.14650 | 172.85682 | 15623 ft | 360 kts | 39° |
| 2026-05-04 09:31 | -43.12724 | 172.87892 | 16304 ft | 363 kts | 38° |
| 2026-05-04 09:32 | -43.10778 | 172.90113 | 16983 ft | 366 kts | 38° |
| 2026-05-04 09:32 | -43.08817 | 172.92349 | 17681 ft | 369 kts | 38° |
| 2026-05-04 09:34 | -42.94577 | 173.08435 | 22011 ft | 390 kts | 37° |
| 2026-05-04 09:34 | -42.92390 | 173.10658 | 22568 ft | 393 kts | 36° |
| 2026-05-04 09:34 | -42.90166 | 173.12850 | 23111 ft | 396 kts | 36° |
| 2026-05-04 09:34 | -42.87916 | 173.15051 | 23439 ft | 399 kts | 36° |
| 2026-05-04 09:35 | -42.85689 | 173.17238 | 23484 ft | 391 kts | 36° |
| 2026-05-04 09:35 | -42.83499 | 173.19405 | 23493 ft | 387 kts | 36° |
| 2026-05-04 09:35 | -42.81332 | 173.21560 | 23489 ft | 385 kts | 36° |
| 2026-05-04 09:35 | -42.79180 | 173.23714 | 23488 ft | 384 kts | 37° |
| 2026-05-04 09:37 | -42.64104 | 173.38743 | 23490 ft | 384 kts | 36° |
| 2026-05-04 09:37 | -42.61955 | 173.40884 | 23493 ft | 384 kts | 36° |
| 2026-05-04 09:38 | -42.59799 | 173.43026 | 23495 ft | 384 kts | 36° |
| 2026-05-04 09:38 | -42.57643 | 173.45159 | 23500 ft | 384 kts | 36° |
| 2026-05-04 09:38 | -42.55487 | 173.47288 | 23497 ft | 384 kts | 36° |
| 2026-05-04 09:38 | -42.53326 | 173.49422 | 23496 ft | 384 kts | 36° |
| 2026-05-04 09:39 | -42.51167 | 173.51558 | 23500 ft | 384 kts | 36° |
| 2026-05-04 09:39 | -42.49011 | 173.53690 | 23491 ft | 384 kts | 36° |
| 2026-05-04 09:39 | -42.46849 | 173.55821 | 23491 ft | 384 kts | 36° |
| 2026-05-04 09:39 | -42.44684 | 173.57953 | 23496 ft | 384 kts | 36° |
| 2026-05-04 09:40 | -42.42527 | 173.60082 | 23503 ft | 385 kts | 36° |
| 2026-05-04 09:40 | -42.40361 | 173.62218 | 23496 ft | 384 kts | 36° |
| 2026-05-04 09:40 | -42.38218 | 173.64330 | 23495 ft | 384 kts | 36° |
| 2026-05-04 09:40 | -42.36080 | 173.66429 | 23498 ft | 384 kts | 36° |
| 2026-05-04 09:41 | -42.33918 | 173.68548 | 23498 ft | 384 kts | 36° |
| 2026-05-04 09:42 | -42.19349 | 173.82800 | 21978 ft | 359 kts | 36° |
| 2026-05-04 09:43 | -42.17325 | 173.84771 | 21715 ft | 358 kts | 36° |
| 2026-05-04 09:43 | -42.15305 | 173.86738 | 21466 ft | 357 kts | 36° |
| 2026-05-04 09:43 | -42.13297 | 173.88696 | 21213 ft | 356 kts | 36° |
| 2026-05-04 09:43 | -42.11301 | 173.90640 | 20966 ft | 355 kts | 36° |
| 2026-05-04 09:44 | -42.09299 | 173.92591 | 20708 ft | 354 kts | 35° |
| 2026-05-04 09:44 | -42.07310 | 173.94528 | 20466 ft | 353 kts | 35° |
| 2026-05-04 09:44 | -42.05326 | 173.96453 | 20221 ft | 352 kts | 35° |
| 2026-05-04 09:46 | -41.91770 | 174.09573 | 17245 ft | 336 kts | 35° |
| 2026-05-04 09:46 | -41.89874 | 174.11401 | 16812 ft | 335 kts | 35° |
| 2026-05-04 09:46 | -41.87986 | 174.13218 | 16380 ft | 334 kts | 35° |
| 2026-05-04 09:47 | -41.86101 | 174.15031 | 15961 ft | 333 kts | 34° |
| 2026-05-04 09:47 | -41.84221 | 174.16840 | 15527 ft | 332 kts | 35° |
| 2026-05-04 09:49 | -41.71286 | 174.30046 | 11960 ft | 338 kts | 45° |
| 2026-05-04 09:49 | -41.69637 | 174.32255 | 11532 ft | 336 kts | 45° |
| 2026-05-04 09:49 | -41.67987 | 174.34458 | 11105 ft | 334 kts | 45° |
| 2026-05-04 09:51 | -41.58504 | 174.47085 | 9299 ft | 303 kts | 45° |
| 2026-05-04 09:51 | -41.57025 | 174.49049 | 8970 ft | 300 kts | 45° |
| 2026-05-04 09:51 | -41.55555 | 174.50998 | 8472 ft | 296 kts | 44° |
| 2026-05-04 09:51 | -41.54100 | 174.52922 | 7841 ft | 293 kts | 44° |
| 2026-05-04 09:52 | -41.52664 | 174.54824 | 7345 ft | 286 kts | 44° |
| 2026-05-04 09:52 | -41.51303 | 174.56630 | 7219 ft | 266 kts | 44° |
| 2026-05-04 09:52 | -41.50089 | 174.58400 | 6901 ft | 256 kts | 56° |
| 2026-05-04 09:52 | -41.49351 | 174.60523 | 6440 ft | 252 kts | 76° |
| 2026-05-04 09:53 | -41.49187 | 174.62826 | 5954 ft | 249 kts | 92° |
| 2026-05-04 09:53 | -41.49286 | 174.65136 | 5425 ft | 250 kts | 92° |
| 2026-05-04 09:53 | -41.49381 | 174.67443 | 5140 ft | 248 kts | 92° |
| 2026-05-04 09:53 | -41.49473 | 174.69730 | 4771 ft | 245 kts | 92° |
| 2026-05-04 09:54 | -41.49562 | 174.72005 | 4226 ft | 246 kts | 92° |
| 2026-05-04 09:54 | -41.49522 | 174.74269 | 3678 ft | 244 kts | 77° |
| 2026-05-04 09:54 | -41.48961 | 174.76391 | 3117 ft | 240 kts | 56° |
| 2026-05-04 09:54 | -41.47968 | 174.78055 | 2877 ft | 220 kts | 37° |
| 2026-05-04 09:55 | -41.46769 | 174.79160 | 2661 ft | 201 kts | 22° |
| 2026-05-04 09:55 | -41.45505 | 174.79749 | 2438 ft | 185 kts | 7° |
| 2026-05-04 09:55 | -41.44269 | 174.79909 | 2196 ft | 173 kts | 1° |
| 2026-05-04 09:55 | -41.43097 | 174.79987 | 1969 ft | 165 kts | 1° |
| 2026-05-04 09:56 | -41.41990 | 174.80062 | 1763 ft | 152 kts | 1° |
| 2026-05-04 09:56 | -41.40989 | 174.80131 | 1548 ft | 136 kts | 1° |
| 2026-05-04 09:56 | -41.40065 | 174.80193 | 1381 ft | 129 kts | 2° |
| 2026-05-04 09:56 | -41.39165 | 174.80253 | 1196 ft | 129 kts | 3° |
| 2026-05-04 09:57 | -41.38295 | 174.80312 | 1022 ft | 128 kts | 2° |
| 2026-05-04 09:57 | -41.37447 | 174.80369 | 839 ft | 128 kts | 4° |
| 2026-05-04 09:57 | -41.36553 | 174.80429 | 676 ft | 128 kts | 5° |
| 2026-05-04 09:57 | -41.35675 | 174.80488 | 510 ft | 125 kts | 5° |
| 2026-05-04 09:58 | -41.34798 | 174.80547 | 324 ft | 127 kts | 6° |
| 2026-05-04 09:58 | -41.33916 | 174.80606 | 183 ft | 124 kts | 5° |
| 2026-05-04 09:58 | -41.33077 | 174.80662 | 62 ft | 111 kts | 6° |
| 2026-05-04 10:00 | -41.32410 | 174.80837 | 34 ft | 20 kts | 183° |
| 2026-05-04 10:00 | -41.32569 | 174.80824 | 29 ft | 26 kts | 182° |
| 2026-05-04 10:02 | -41.32853 | 174.80882 | 26 ft | 4 kts | 175° |
| 2026-05-04 10:04 | -41.32986 | 174.80976 | 26 ft | 0 kts | 160° |